createdAt,value
2022-10-03T00:01:13.676Z,217.07
2022-10-03T00:03:53.442Z,221.87
2022-10-03T00:06:33.546Z,250.47
2022-10-03T00:09:19.465Z,241.43
2022-10-03T00:12:04.874Z,241.83
2022-10-03T00:14:43.095Z,224.80
2022-10-03T00:17:19.600Z,244.10
2022-10-03T00:20:00.155Z,255.43
2022-10-03T00:22:37.537Z,250.10
2022-10-03T00:25:31.392Z,231.70
2022-10-03T00:28:18.234Z,207.57
2022-10-03T00:31:10.279Z,237.67
2022-10-03T00:33:53.454Z,216.17
2022-10-03T00:36:30.642Z,244.60
2022-10-03T00:39:18.975Z,246.67
2022-10-03T00:42:10.177Z,248.03
2022-10-03T00:45:04.119Z,221.90
2022-10-03T00:47:55.314Z,223.80
2022-10-03T00:50:53.501Z,226.30
2022-10-03T00:53:47.999Z,204.57
2022-10-03T00:56:41.876Z,185.37
2022-10-03T00:59:28.574Z,188.47
2022-10-03T01:01:57.283Z,189.00
2022-10-03T01:04:49.213Z,222.90
2022-10-03T01:07:38.336Z,191.50
2022-10-03T01:10:17.483Z,225.63
2022-10-03T01:13:06.731Z,211.30
2022-10-03T01:15:48.667Z,207.20
2022-10-03T01:18:28.851Z,192.20
2022-10-03T01:21:09.072Z,206.23
2022-10-03T01:24:13.214Z,219.00
2022-10-03T01:26:56.685Z,201.50
2022-10-03T01:29:59.451Z,195.07
2022-10-03T01:32:34.298Z,196.07
2022-10-03T01:35:13.301Z,198.93
2022-10-03T01:37:51.355Z,199.63
2022-10-03T01:40:27.178Z,204.63
2022-10-03T01:43:06.226Z,211.83
2022-10-03T01:45:47.599Z,205.23
2022-10-03T01:48:26.412Z,206.10
2022-10-03T01:51:02.639Z,210.93
2022-10-03T01:53:41.564Z,201.30
2022-10-03T01:56:17.628Z,201.73
2022-10-03T01:58:56.668Z,221.90
2022-10-03T02:01:32.751Z,243.77
2022-10-03T02:04:04.335Z,204.47
2022-10-03T02:06:43.638Z,222.40
2022-10-03T02:09:24.820Z,215.47
2022-10-03T02:12:08.423Z,220.97
2022-10-03T02:14:48.436Z,213.03
2022-10-03T02:17:30.751Z,224.13
2022-10-03T02:20:07.966Z,203.87
2022-10-03T02:22:42.598Z,218.43
2022-10-03T02:25:24.519Z,204.37
2022-10-03T02:28:30.551Z,195.43
2022-10-03T02:31:34.912Z,182.87
2022-10-03T02:34:31.056Z,194.47
2022-10-03T02:37:48.361Z,173.10
2022-10-03T02:40:47.479Z,170.70
2022-10-03T02:43:42.756Z,180.13
2022-10-03T02:46:46.342Z,166.07
2022-10-03T02:49:54.041Z,169.23
2022-10-03T02:53:05.014Z,164.23
2022-10-03T02:56:16.419Z,164.07
2022-10-03T02:59:19.348Z,188.20
2022-10-03T03:02:30.281Z,176.13
2022-10-03T03:05:19.108Z,170.80
2022-10-03T03:08:38.215Z,176.77
2022-10-03T03:11:38.403Z,186.80
2022-10-03T03:14:30.367Z,174.53
2022-10-03T03:17:09.081Z,167.80
2022-10-03T03:19:49.432Z,194.87
2022-10-03T03:22:36.148Z,183.00
2022-10-03T03:25:19.644Z,173.83
2022-10-03T03:28:00.220Z,173.30
2022-10-03T03:30:37.872Z,179.07
2022-10-03T03:33:20.251Z,189.47
2022-10-03T03:36:01.778Z,171.23
2022-10-03T03:38:42.029Z,160.47
2022-10-03T03:41:38.607Z,180.13
2022-10-03T03:44:32.159Z,168.87
2022-10-03T03:47:15.133Z,168.73
2022-10-03T03:49:59.139Z,164.77
2022-10-03T03:52:43.067Z,170.83
2022-10-03T03:55:40.682Z,165.87
2022-10-03T03:58:25.122Z,166.43
2022-10-03T04:01:11.903Z,169.83
2022-10-03T04:04:04.041Z,170.87
2022-10-03T04:06:46.282Z,167.53
2022-10-03T04:09:33.827Z,172.97
2022-10-03T04:25:25.767Z,339.90
2022-10-03T04:28:45.643Z,196.27
2022-10-03T04:31:29.244Z,196.57
2022-10-03T04:34:21.948Z,169.83
2022-10-03T04:37:06.774Z,168.93
2022-10-03T04:39:48.090Z,168.93
2022-10-03T04:42:29.166Z,181.67
2022-10-03T04:45:14.279Z,176.03
2022-10-03T04:47:49.668Z,173.37
2022-10-03T04:50:32.071Z,173.03
2022-10-03T04:53:18.225Z,176.67
2022-10-03T04:55:50.045Z,177.57
2022-10-03T04:58:29.586Z,183.73
2022-10-03T05:01:13.318Z,187.10
2022-10-03T05:03:50.049Z,188.67
2022-10-03T05:06:33.066Z,181.00
2022-10-03T05:09:12.493Z,187.70
2022-10-03T05:11:50.394Z,176.07
2022-10-03T05:14:28.286Z,186.80
2022-10-03T05:17:07.988Z,174.30
2022-10-03T05:19:47.234Z,177.20
2022-10-03T05:22:43.770Z,181.20
2022-10-03T05:25:22.781Z,182.50
2022-10-03T05:27:55.261Z,186.57
2022-10-03T05:30:35.452Z,186.23
2022-10-03T05:33:14.368Z,181.67
2022-10-03T05:35:52.505Z,181.37
2022-10-03T05:38:40.218Z,193.47
2022-10-03T05:41:23.823Z,187.73
2022-10-03T05:44:03.999Z,191.33
2022-10-03T05:46:42.963Z,187.60
2022-10-03T05:49:31.530Z,190.73
2022-10-03T05:52:25.758Z,188.77
2022-10-03T05:55:11.267Z,211.77
2022-10-03T05:58:14.997Z,200.20
2022-10-03T06:01:05.807Z,221.13
2022-10-03T06:04:06.907Z,201.90
2022-10-03T06:06:49.666Z,218.67
2022-10-03T06:09:45.004Z,200.10
2022-10-03T06:12:19.904Z,192.60
2022-10-03T06:15:34.882Z,186.87
2022-10-03T06:18:18.586Z,204.60
2022-10-03T06:21:37.307Z,190.07
2022-10-03T06:24:26.335Z,194.23
2022-10-03T06:27:32.967Z,224.87
2022-10-03T06:30:18.146Z,210.70
2022-10-03T06:33:08.492Z,192.77
2022-10-03T06:36:12.668Z,190.47
2022-10-03T06:39:31.416Z,193.63
2022-10-03T06:42:36.446Z,224.10
2022-10-03T06:45:50.024Z,201.57
2022-10-03T06:48:41.736Z,214.27
2022-10-03T06:51:32.165Z,196.67
2022-10-03T06:54:18.286Z,188.20
2022-10-03T06:57:16.858Z,185.50
2022-10-03T07:00:06.719Z,219.10
2022-10-03T07:03:07.747Z,195.90
2022-10-03T07:06:10.007Z,209.03
2022-10-03T07:09:08.153Z,202.40
2022-10-03T07:12:33.982Z,194.10
2022-10-03T07:15:57.841Z,232.43
2022-10-03T07:18:46.699Z,234.67
2022-10-03T07:21:52.579Z,236.27
2022-10-03T07:24:40.421Z,233.90
2022-10-03T07:27:24.243Z,209.70
2022-10-03T07:30:06.349Z,216.97
2022-10-03T07:32:58.828Z,249.47
2022-10-03T07:36:11.392Z,276.70
2022-10-03T07:39:12.683Z,351.13
2022-10-03T07:42:00.710Z,396.47
2022-10-03T07:44:56.788Z,363.77
2022-10-03T07:47:57.697Z,412.03
2022-10-03T07:50:52.179Z,502.83
2022-10-03T07:54:02.261Z,443.27
2022-10-03T07:56:59.447Z,478.43
2022-10-03T08:00:07.521Z,523.60
2022-10-03T08:03:03.853Z,634.47
2022-10-03T08:05:52.406Z,552.03
2022-10-03T08:08:50.296Z,486.70
2022-10-03T08:11:34.856Z,434.20
2022-10-03T08:14:18.070Z,507.63
2022-10-03T08:17:21.197Z,646.63
2022-10-03T08:20:08.855Z,933.23
2022-10-03T08:22:53.947Z,1204.20
2022-10-03T08:25:29.660Z,1323.93
2022-10-03T08:28:31.337Z,1352.43
2022-10-03T08:31:25.511Z,1295.47
2022-10-03T08:34:14.023Z,1377.67
2022-10-03T08:37:09.257Z,1341.77
2022-10-03T08:39:56.205Z,1456.27
2022-10-03T08:43:23.988Z,1523.03
2022-10-03T08:46:06.531Z,1517.20
2022-10-03T08:48:59.124Z,1479.97
2022-10-03T08:52:04.850Z,1477.33
2022-10-03T08:55:03.679Z,1119.20
2022-10-03T08:57:59.310Z,2266.67
2022-10-03T09:00:37.331Z,2266.67
2022-10-03T09:03:44.029Z,2266.67
2022-10-03T09:07:12.590Z,2266.67
2022-10-03T09:10:16.545Z,2266.67
2022-10-03T09:13:20.194Z,2266.67
2022-10-03T09:16:42.559Z,2266.67
2022-10-03T09:19:26.334Z,2266.67
2022-10-03T09:22:11.434Z,2266.67
2022-10-03T09:25:22.541Z,2266.67
2022-10-03T09:28:25.752Z,2266.67
2022-10-03T09:31:05.174Z,2266.67
2022-10-03T09:34:06.566Z,2266.67
2022-10-03T09:37:25.109Z,2266.67
2022-10-03T09:40:21.016Z,2266.67
2022-10-03T09:43:24.055Z,2266.67
2022-10-03T09:46:22.585Z,2266.67
2022-10-03T09:49:19.409Z,2266.67
2022-10-03T09:52:06.719Z,2266.67
2022-10-03T09:55:08.481Z,2266.67
2022-10-03T09:58:06.239Z,2266.67
2022-10-03T10:00:54.615Z,2266.67
2022-10-03T10:03:59.589Z,2266.67
2022-10-03T10:07:11.696Z,2266.67
2022-10-03T10:10:12.858Z,2266.67
2022-10-03T10:13:16.973Z,2266.67
2022-10-03T10:16:18.139Z,2266.67
2022-10-03T10:19:10.726Z,2266.67
2022-10-03T10:21:56.022Z,2266.67
2022-10-03T10:24:53.035Z,2266.67
2022-10-03T10:28:08.787Z,2266.67
2022-10-03T10:31:14.282Z,2266.67
2022-10-03T10:34:17.965Z,2266.67
2022-10-03T10:37:33.051Z,2266.67
2022-10-03T10:40:28.677Z,2266.67
2022-10-03T10:43:49.903Z,2266.67
2022-10-03T10:46:44.674Z,2266.67
2022-10-03T10:49:49.744Z,2266.67
2022-10-03T10:52:50.568Z,2266.67
2022-10-03T10:56:04.917Z,2266.67
2022-10-03T10:59:27.076Z,2266.67
2022-10-03T11:02:33.375Z,2266.67
2022-10-03T11:05:34.776Z,2266.67
2022-10-03T11:08:51.427Z,2266.67
2022-10-03T11:11:56.827Z,2266.67
2022-10-03T11:14:59.194Z,2266.67
2022-10-03T11:17:53.733Z,2266.67
2022-10-03T11:21:03.903Z,2266.67
2022-10-03T11:24:01.306Z,2266.67
2022-10-03T11:27:02.935Z,2266.67
2022-10-03T11:30:06.160Z,2266.67
2022-10-03T11:33:10.750Z,2266.67
2022-10-03T11:36:06.068Z,2266.67
2022-10-03T11:38:37.829Z,2266.67
2022-10-03T11:41:17.251Z,2266.67
2022-10-03T11:44:04.959Z,2266.67
2022-10-03T11:46:49.568Z,2266.67
2022-10-03T11:49:38.074Z,2266.67
2022-10-03T11:52:22.310Z,2266.67
2022-10-03T11:54:59.846Z,2266.67
2022-10-03T11:57:31.238Z,2266.67
2022-10-03T12:00:04.883Z,2266.67
2022-10-03T12:03:04.779Z,2266.67
2022-10-03T12:05:48.592Z,2266.67
2022-10-03T12:08:48.655Z,2266.67
2022-10-03T12:11:22.120Z,2266.67
2022-10-03T12:14:10.930Z,2266.67
2022-10-03T12:16:57.748Z,2266.67
2022-10-03T12:19:32.454Z,2266.67
2022-10-03T12:22:10.120Z,2266.67
2022-10-03T12:24:43.451Z,2266.67
2022-10-03T12:27:20.576Z,2266.67
2022-10-03T12:30:00.308Z,2266.67
2022-10-03T12:32:38.257Z,2266.67
2022-10-03T12:35:21.711Z,2266.67
2022-10-03T12:38:08.805Z,2266.67
2022-10-03T12:40:41.214Z,2266.67
2022-10-03T12:43:31.497Z,2266.67
2022-10-03T12:46:03.351Z,2266.67
2022-10-03T12:48:43.060Z,2266.67
2022-10-03T12:51:23.272Z,2266.67
2022-10-03T12:54:02.083Z,2266.67
2022-10-03T12:56:42.372Z,2266.67
2022-10-03T12:59:33.935Z,2266.67
2022-10-03T13:02:28.072Z,2266.67
2022-10-03T13:05:19.714Z,2266.67
2022-10-03T13:07:54.000Z,2266.67
2022-10-03T13:10:33.966Z,2266.67
2022-10-03T13:13:20.196Z,2266.67
2022-10-03T13:16:13.500Z,2266.67
2022-10-03T13:18:50.992Z,2266.67
2022-10-03T13:21:45.017Z,2266.67
2022-10-03T13:24:23.307Z,2266.67
2022-10-03T13:27:03.313Z,2266.67
2022-10-03T13:29:40.447Z,2266.67
2022-10-03T13:32:16.500Z,2266.67
2022-10-03T13:35:20.228Z,2266.67
2022-10-03T13:38:07.819Z,2266.67
2022-10-03T13:40:43.384Z,2266.67
2022-10-03T13:43:16.353Z,2266.67
2022-10-03T13:45:49.683Z,2266.67
2022-10-03T13:48:22.271Z,2266.67
2022-10-03T13:50:58.775Z,2266.67
2022-10-03T13:53:44.648Z,2266.67
2022-10-03T13:56:16.970Z,2266.67
2022-10-03T13:58:52.541Z,2266.67
2022-10-03T14:01:35.852Z,2266.67
2022-10-03T14:07:05.970Z,2266.67
2022-10-03T14:09:51.879Z,2266.67
2022-10-03T14:12:50.986Z,2266.67
2022-10-03T14:15:36.239Z,2266.67
2022-10-03T14:18:20.008Z,2266.67
2022-10-03T14:21:26.977Z,2266.67
2022-10-03T14:24:04.142Z,2266.67
2022-10-03T14:26:40.617Z,2266.67
2022-10-03T14:29:19.841Z,2266.67
2022-10-03T14:31:57.442Z,2266.67
2022-10-03T14:34:43.292Z,2266.67
2022-10-03T14:37:21.785Z,2266.67
2022-10-03T14:40:02.383Z,2266.67
2022-10-03T14:42:53.642Z,2266.67
2022-10-03T14:45:29.260Z,2266.67
2022-10-03T14:48:05.471Z,2266.67
2022-10-03T14:50:39.368Z,2266.67
2022-10-03T14:53:15.839Z,2266.67
2022-10-03T14:55:47.283Z,2266.67
2022-10-03T14:58:21.304Z,2266.67
2022-10-03T15:00:55.337Z,2266.67
2022-10-03T15:03:33.464Z,2266.67
2022-10-03T15:06:33.115Z,2266.67
2022-10-03T15:09:05.310Z,2266.67
2022-10-03T15:11:36.417Z,2266.67
2022-10-03T15:14:07.308Z,2266.67
2022-10-03T15:16:40.269Z,2266.67
2022-10-03T15:19:14.887Z,2266.67
2022-10-03T15:21:46.704Z,2266.67
2022-10-03T15:24:25.138Z,2266.67
2022-10-03T15:27:02.491Z,2266.67
2022-10-03T15:29:32.519Z,2266.67
2022-10-03T15:32:01.591Z,2266.67
2022-10-03T15:34:33.014Z,2266.67
2022-10-03T15:37:10.897Z,2266.67
2022-10-03T15:39:43.045Z,2266.67
2022-10-03T15:42:23.994Z,2266.67
2022-10-03T15:44:54.712Z,2266.67
2022-10-03T15:47:25.768Z,2266.67
2022-10-03T15:49:57.039Z,2266.67
2022-10-03T15:52:34.119Z,2266.67
2022-10-03T15:55:12.599Z,2266.67
2022-10-03T15:57:47.121Z,2266.67
2022-10-03T16:00:24.628Z,2266.67
2022-10-03T16:03:02.042Z,2266.67
2022-10-03T16:05:31.089Z,2266.67
2022-10-03T16:08:10.491Z,2266.67
2022-10-03T16:10:42.202Z,2266.67
2022-10-03T16:13:26.958Z,2266.67
2022-10-03T16:16:14.409Z,2266.67
2022-10-03T16:18:54.921Z,2266.67
2022-10-03T16:21:48.804Z,2266.67
2022-10-03T16:24:25.478Z,2266.67
2022-10-03T16:26:58.232Z,2266.67
2022-10-03T16:29:29.795Z,2266.67
2022-10-03T16:32:06.115Z,2266.67
2022-10-03T16:34:39.444Z,2266.67
2022-10-03T16:37:18.031Z,2266.67
2022-10-03T16:39:54.770Z,2266.67
2022-10-03T16:42:26.388Z,2266.67
2022-10-03T16:44:58.002Z,2266.67
2022-10-03T16:47:37.325Z,2266.67
2022-10-03T16:50:26.433Z,1684.03
2022-10-03T16:52:58.831Z,2266.67
2022-10-03T16:55:35.606Z,1875.83
2022-10-03T16:58:12.260Z,1151.50
2022-10-03T17:01:22.107Z,1104.87
2022-10-03T17:03:47.912Z,1068.00
2022-10-03T17:06:21.540Z,1619.03
2022-10-03T17:08:52.693Z,1661.50
2022-10-03T17:11:28.738Z,1609.77
2022-10-03T17:14:02.522Z,1530.67
2022-10-03T17:16:44.037Z,1303.70
2022-10-03T17:19:22.060Z,1295.73
2022-10-03T17:21:54.983Z,1181.80
2022-10-03T17:24:34.892Z,1273.97
2022-10-03T17:27:12.120Z,1209.83
2022-10-03T17:29:49.543Z,1081.00
2022-10-03T17:32:25.034Z,1160.27
2022-10-03T17:35:00.722Z,1147.20
2022-10-03T17:38:47.822Z,1127.53
2022-10-03T17:41:17.147Z,1128.20
2022-10-03T17:43:51.078Z,1011.60
2022-10-03T17:46:26.118Z,783.70
2022-10-03T17:49:03.552Z,726.10
2022-10-03T17:51:39.313Z,664.97
2022-10-03T17:54:15.288Z,582.03
2022-10-03T17:56:48.820Z,586.20
2022-10-03T17:59:24.819Z,586.73
2022-10-03T18:01:57.397Z,784.77
2022-10-03T18:04:34.632Z,719.53
2022-10-03T18:07:07.683Z,610.57
2022-10-03T18:09:40.828Z,425.60
2022-10-03T18:12:22.258Z,345.87
2022-10-03T18:15:08.430Z,344.90
2022-10-03T18:17:49.863Z,327.00
2022-10-03T18:20:33.929Z,313.73
2022-10-03T18:23:06.593Z,364.00
2022-10-03T18:26:20.575Z,347.70
2022-10-03T18:29:02.096Z,431.03
2022-10-03T18:31:35.288Z,319.60
2022-10-03T18:34:13.793Z,297.53
2022-10-03T18:36:47.913Z,272.23
2022-10-03T18:39:19.809Z,229.47
2022-10-03T18:41:50.519Z,227.50
2022-10-03T18:44:20.982Z,179.03
2022-10-03T18:46:56.583Z,163.83
2022-10-03T18:49:35.537Z,171.03
2022-10-03T18:52:15.050Z,200.50
2022-10-03T18:54:57.624Z,202.43
2022-10-03T18:57:35.408Z,174.03
2022-10-03T19:00:08.834Z,181.50
2022-10-03T19:02:43.930Z,173.97
2022-10-03T19:05:18.729Z,173.97
2022-10-03T19:07:54.706Z,176.03
2022-10-03T19:10:35.175Z,172.50
2022-10-03T19:13:14.919Z,172.60
2022-10-03T19:16:00.734Z,179.70
2022-10-03T19:18:42.322Z,184.27
2022-10-03T19:21:18.556Z,179.93
2022-10-03T19:23:51.355Z,170.53
2022-10-03T19:26:27.232Z,172.30
2022-10-03T19:28:59.525Z,164.17
2022-10-03T19:31:34.049Z,148.80
2022-10-03T19:34:07.090Z,165.27
2022-10-03T19:36:40.961Z,158.00
2022-10-03T19:39:15.634Z,169.97
2022-10-03T19:41:52.247Z,177.57
2022-10-03T19:44:23.763Z,181.57
2022-10-03T19:47:05.255Z,155.93
2022-10-03T19:49:45.835Z,165.77
2022-10-03T19:52:26.033Z,163.23
2022-10-03T19:55:00.647Z,166.97
2022-10-03T19:57:40.090Z,165.07
2022-10-03T20:00:25.874Z,169.10
2022-10-03T20:02:57.115Z,158.57
2022-10-03T20:05:33.956Z,162.97
2022-10-03T20:08:08.752Z,151.50
2022-10-03T20:10:56.558Z,149.80
2022-10-03T20:13:25.194Z,159.27
2022-10-03T20:15:57.899Z,152.07
2022-10-03T20:18:30.839Z,151.63
2022-10-03T20:21:02.821Z,166.13
2022-10-03T20:23:35.811Z,150.30
2022-10-03T20:26:10.350Z,150.17
2022-10-03T20:28:59.840Z,149.97
2022-10-03T20:31:31.167Z,141.70
2022-10-03T20:34:02.678Z,159.43
2022-10-03T20:36:36.337Z,146.47
2022-10-03T20:39:13.590Z,145.27
2022-10-03T20:41:56.519Z,157.07
2022-10-03T20:44:47.220Z,159.70
2022-10-03T20:47:43.933Z,159.20
2022-10-03T20:50:21.407Z,188.43
2022-10-03T20:52:54.719Z,170.47
2022-10-03T20:55:26.743Z,173.50
2022-10-03T20:58:03.704Z,161.40
2022-10-03T21:00:32.748Z,168.00
2022-10-03T21:03:05.026Z,172.10
2022-10-03T21:05:37.222Z,154.17
2022-10-03T21:08:17.636Z,164.43
2022-10-03T21:10:50.978Z,173.43
2022-10-03T21:13:23.615Z,164.27
2022-10-03T21:15:54.473Z,167.40
2022-10-03T21:18:25.953Z,175.10
2022-10-03T21:21:04.605Z,193.13
2022-10-03T21:23:39.264Z,233.10
2022-10-03T21:26:09.036Z,235.23
2022-10-03T21:28:39.053Z,234.60
2022-10-03T21:31:26.413Z,263.27
2022-10-03T21:34:02.456Z,299.20
2022-10-03T21:36:36.947Z,291.13
2022-10-03T21:39:18.227Z,327.60
2022-10-03T21:42:05.905Z,276.87
2022-10-03T21:44:48.607Z,308.60
2022-10-03T21:47:29.216Z,256.07
2022-10-03T21:50:00.603Z,234.47
2022-10-03T21:52:38.293Z,187.83
2022-10-03T21:55:39.268Z,201.63
2022-10-03T21:58:28.073Z,215.87
2022-10-03T22:01:04.709Z,224.77
2022-10-03T22:03:42.038Z,210.10
2022-10-03T22:06:19.498Z,191.40
2022-10-03T22:08:50.328Z,175.23
2022-10-03T22:11:33.470Z,183.57
2022-10-03T22:14:20.799Z,231.30
2022-10-03T22:16:57.436Z,222.50
2022-10-03T22:19:36.972Z,236.20
2022-10-03T22:22:16.493Z,227.37
2022-10-03T22:24:56.367Z,240.53
2022-10-03T22:27:33.664Z,284.87
2022-10-03T22:30:06.457Z,298.77
2022-10-03T22:32:41.868Z,263.13
2022-10-03T22:35:24.449Z,236.97
2022-10-03T22:37:52.918Z,264.47
2022-10-03T22:40:22.076Z,242.57
2022-10-03T22:42:56.535Z,256.17
2022-10-03T22:45:28.231Z,290.43
2022-10-03T22:47:59.559Z,316.10
2022-10-03T22:50:32.365Z,322.87
2022-10-03T22:53:03.122Z,270.90
2022-10-03T22:55:32.619Z,257.70
2022-10-03T22:58:03.293Z,334.57
2022-10-03T23:00:35.542Z,439.90
2022-10-03T23:03:08.374Z,422.20
2022-10-03T23:05:52.412Z,428.13
2022-10-03T23:08:31.585Z,413.93
2022-10-03T23:11:03.998Z,412.83
2022-10-03T23:13:39.425Z,347.47
2022-10-03T23:16:19.729Z,351.93
2022-10-03T23:19:09.770Z,282.60
2022-10-03T23:21:45.530Z,273.13
2022-10-03T23:24:21.282Z,247.00
2022-10-03T23:27:30.059Z,232.83
2022-10-03T23:30:35.512Z,235.53
2022-10-03T23:33:04.913Z,266.77
2022-10-03T23:35:41.045Z,199.33
2022-10-03T23:38:42.731Z,194.87
2022-10-03T23:41:13.913Z,186.00
2022-10-03T23:43:49.931Z,191.47
2022-10-03T23:46:20.500Z,182.17
2022-10-03T23:48:53.016Z,144.67
2022-10-03T23:51:25.532Z,163.83
2022-10-03T23:54:02.641Z,149.80
2022-10-03T23:56:35.585Z,149.00
2022-10-03T23:59:19.495Z,134.93
